sensor_id;sensor_type;location;lat;lon;timestamp;pressure;altitude;pressure_sealevel;temperature;humidity
57024;BME280;42916;54.346;18.562;2023-02-23T00:01:27;100837.12;;;-0.07;86.68
57024;BME280;42916;54.346;18.562;2023-02-23T00:03:56;100828.48;;;-0.09;86.74
57024;BME280;42916;54.346;18.562;2023-02-23T00:06:25;100828.30;;;-0.12;86.90
57024;BME280;42916;54.346;18.562;2023-02-23T00:08:52;100825.23;;;-0.16;86.90
57024;BME280;42916;54.346;18.562;2023-02-23T00:11:20;100823.96;;;-0.23;87.15
57024;BME280;42916;54.346;18.562;2023-02-23T00:13:49;100825.59;;;-0.27;87.14
57024;BME280;42916;54.346;18.562;2023-02-23T00:16:19;100821.39;;;-0.31;87.20
57024;BME280;42916;54.346;18.562;2023-02-23T00:18:48;100820.58;;;-0.35;87.15
57024;BME280;42916;54.346;18.562;2023-02-23T00:21:22;100823.52;;;-0.40;87.21
57024;BME280;42916;54.346;18.562;2023-02-23T00:23:58;100824.61;;;-0.41;87.50
57024;BME280;42916;54.346;18.562;2023-02-23T00:26:27;100822.17;;;-0.43;87.61
57024;BME280;42916;54.346;18.562;2023-02-23T00:29:01;100822.95;;;-0.47;87.91
57024;BME280;42916;54.346;18.562;2023-02-23T00:31:28;100817.53;;;-0.52;87.93
57024;BME280;42916;54.346;18.562;2023-02-23T00:33:58;100814.64;;;-0.57;88.05
57024;BME280;42916;54.346;18.562;2023-02-23T00:36:26;100815.13;;;-0.61;88.14
57024;BME280;42916;54.346;18.562;2023-02-23T00:38:57;100814.83;;;-0.67;88.48
57024;BME280;42916;54.346;18.562;2023-02-23T00:41:24;100818.14;;;-0.69;88.38
57024;BME280;42916;54.346;18.562;2023-02-23T00:43:57;100811.34;;;-0.72;88.48
57024;BME280;42916;54.346;18.562;2023-02-23T00:46:28;100808.91;;;-0.74;88.49
57024;BME280;42916;54.346;18.562;2023-02-23T00:48:57;100805.58;;;-0.77;88.68
57024;BME280;42916;54.346;18.562;2023-02-23T00:51:26;100801.80;;;-0.80;88.88
57024;BME280;42916;54.346;18.562;2023-02-23T00:53:58;100795.81;;;-0.83;89.11
57024;BME280;42916;54.346;18.562;2023-02-23T00:56:26;100802.67;;;-0.89;89.19
57024;BME280;42916;54.346;18.562;2023-02-23T00:58:53;100799.17;;;-0.94;89.39
57024;BME280;42916;54.346;18.562;2023-02-23T01:01:20;100799.55;;;-0.99;89.34
57024;BME280;42916;54.346;18.562;2023-02-23T01:03:50;100797.52;;;-1.02;89.52
57024;BME280;42916;54.346;18.562;2023-02-23T01:06:21;100801.09;;;-1.03;89.57
57024;BME280;42916;54.346;18.562;2023-02-23T01:08:49;100803.86;;;-1.04;89.66
57024;BME280;42916;54.346;18.562;2023-02-23T01:11:20;100806.84;;;-1.05;89.77
57024;BME280;42916;54.346;18.562;2023-02-23T01:13:48;100804.61;;;-1.08;90.07
57024;BME280;42916;54.346;18.562;2023-02-23T01:16:19;100803.10;;;-1.10;90.27
57024;BME280;42916;54.346;18.562;2023-02-23T01:18:48;100802.08;;;-1.16;90.28
57024;BME280;42916;54.346;18.562;2023-02-23T01:21:20;100807.89;;;-1.20;90.34
57024;BME280;42916;54.346;18.562;2023-02-23T01:23:49;100805.69;;;-1.23;90.45
57024;BME280;42916;54.346;18.562;2023-02-23T01:26:17;100803.05;;;-1.25;90.50
57024;BME280;42916;54.346;18.562;2023-02-23T01:28:53;100808.22;;;-1.26;90.63
57024;BME280;42916;54.346;18.562;2023-02-23T01:31:22;100799.11;;;-1.28;90.72
57024;BME280;42916;54.346;18.562;2023-02-23T01:33:53;100795.45;;;-1.30;90.82
57024;BME280;42916;54.346;18.562;2023-02-23T01:36:20;100791.14;;;-1.33;91.03
57024;BME280;42916;54.346;18.562;2023-02-23T01:38:47;100795.48;;;-1.35;91.06
57024;BME280;42916;54.346;18.562;2023-02-23T01:41:15;100788.77;;;-1.39;91.29
57024;BME280;42916;54.346;18.562;2023-02-23T01:44:02;100791.70;;;-1.43;91.23
57024;BME280;42916;54.346;18.562;2023-02-23T01:46:37;100790.61;;;-1.47;91.24
57024;BME280;42916;54.346;18.562;2023-02-23T01:49:11;100791.17;;;-1.49;91.16
57024;BME280;42916;54.346;18.562;2023-02-23T01:52:03;100789.70;;;-1.49;91.23
57024;BME280;42916;54.346;18.562;2023-02-23T01:54:32;100780.34;;;-1.50;91.25
57024;BME280;42916;54.346;18.562;2023-02-23T01:57:02;100778.94;;;-1.50;91.20
57024;BME280;42916;54.346;18.562;2023-02-23T01:59:34;100775.52;;;-1.51;91.27
57024;BME280;42916;54.346;18.562;2023-02-23T02:02:04;100773.25;;;-1.53;91.18
57024;BME280;42916;54.346;18.562;2023-02-23T02:04:33;100772.30;;;-1.56;91.24
57024;BME280;42916;54.346;18.562;2023-02-23T02:07:17;100769.64;;;-1.58;91.40
57024;BME280;42916;54.346;18.562;2023-02-23T02:09:50;100764.40;;;-1.60;91.28
57024;BME280;42916;54.346;18.562;2023-02-23T02:12:56;100762.16;;;-1.61;91.08
57024;BME280;42916;54.346;18.562;2023-02-23T02:15:31;100766.34;;;-1.62;91.04
57024;BME280;42916;54.346;18.562;2023-02-23T02:18:25;100762.27;;;-1.62;91.00
57024;BME280;42916;54.346;18.562;2023-02-23T02:26:34;100760.33;;;-1.65;91.17
57024;BME280;42916;54.346;18.562;2023-02-23T02:29:24;100760.54;;;-1.69;90.96
57024;BME280;42916;54.346;18.562;2023-02-23T02:34:58;100759.70;;;-1.74;91.12
57024;BME280;42916;54.346;18.562;2023-02-23T02:40:51;100761.19;;;-1.77;91.04
57024;BME280;42916;54.346;18.562;2023-02-23T02:43:33;100757.65;;;-1.77;90.76
57024;BME280;42916;54.346;18.562;2023-02-23T02:46:33;100755.67;;;-1.77;90.80
57024;BME280;42916;54.346;18.562;2023-02-23T02:49:18;100761.52;;;-1.77;90.46
57024;BME280;42916;54.346;18.562;2023-02-23T02:52:04;100762.25;;;-1.77;90.54
57024;BME280;42916;54.346;18.562;2023-02-23T02:54:47;100761.39;;;-1.77;90.65
57024;BME280;42916;54.346;18.562;2023-02-23T02:57:14;100755.55;;;-1.77;90.32
57024;BME280;42916;54.346;18.562;2023-02-23T02:59:46;100754.29;;;-1.80;90.25
57024;BME280;42916;54.346;18.562;2023-02-23T03:02:35;100753.55;;;-1.83;89.83
57024;BME280;42916;54.346;18.562;2023-02-23T03:05:22;100745.64;;;-1.84;89.64
57024;BME280;42916;54.346;18.562;2023-02-23T03:08:21;100748.39;;;-1.85;89.69
57024;BME280;42916;54.346;18.562;2023-02-23T03:11:13;100746.91;;;-1.84;89.29
57024;BME280;42916;54.346;18.562;2023-02-23T03:14:25;100741.95;;;-1.84;89.33
57024;BME280;42916;54.346;18.562;2023-02-23T03:17:34;100740.15;;;-1.86;89.01
57024;BME280;42916;54.346;18.562;2023-02-23T03:29:03;100727.20;;;-1.95;88.59
57024;BME280;42916;54.346;18.562;2023-02-23T03:34:46;100725.81;;;-1.95;88.36
57024;BME280;42916;54.346;18.562;2023-02-23T03:37:42;100721.21;;;-1.94;88.49
57024;BME280;42916;54.346;18.562;2023-02-23T03:40:35;100723.18;;;-1.92;88.33
57024;BME280;42916;54.346;18.562;2023-02-23T03:43:25;100723.79;;;-1.93;88.69
57024;BME280;42916;54.346;18.562;2023-02-23T03:46:12;100725.77;;;-1.93;88.47
57024;BME280;42916;54.346;18.562;2023-02-23T03:49:00;100726.19;;;-1.94;88.18
57024;BME280;42916;54.346;18.562;2023-02-23T03:51:51;100721.30;;;-1.96;88.27
57024;BME280;42916;54.346;18.562;2023-02-23T03:54:46;100722.02;;;-1.98;88.28
57024;BME280;42916;54.346;18.562;2023-02-23T03:57:35;100718.70;;;-2.00;87.96
57024;BME280;42916;54.346;18.562;2023-02-23T04:00:28;100718.40;;;-2.00;88.11
57024;BME280;42916;54.346;18.562;2023-02-23T04:03:16;100716.41;;;-2.00;87.90
57024;BME280;42916;54.346;18.562;2023-02-23T04:06:05;100713.45;;;-1.99;87.69
57024;BME280;42916;54.346;18.562;2023-02-23T04:08:53;100706.88;;;-1.97;87.77
57024;BME280;42916;54.346;18.562;2023-02-23T04:11:50;100702.04;;;-1.99;87.68
57024;BME280;42916;54.346;18.562;2023-02-23T04:14:53;100703.02;;;-2.00;87.67
57024;BME280;42916;54.346;18.562;2023-02-23T04:17:24;100705.68;;;-2.01;87.60
57024;BME280;42916;54.346;18.562;2023-02-23T04:19:53;100698.82;;;-2.02;87.43
57024;BME280;42916;54.346;18.562;2023-02-23T04:22:21;100703.80;;;-2.03;87.37
57024;BME280;42916;54.346;18.562;2023-02-23T04:24:49;100702.44;;;-2.04;87.29
57024;BME280;42916;54.346;18.562;2023-02-23T04:27:16;100698.68;;;-2.02;87.08
57024;BME280;42916;54.346;18.562;2023-02-23T04:29:43;100701.67;;;-2.00;87.01
57024;BME280;42916;54.346;18.562;2023-02-23T04:32:16;100699.41;;;-1.99;87.06
57024;BME280;42916;54.346;18.562;2023-02-23T04:34:44;100698.14;;;-1.99;86.99
57024;BME280;42916;54.346;18.562;2023-02-23T04:37:11;100696.35;;;-1.99;86.97
57024;BME280;42916;54.346;18.562;2023-02-23T04:39:38;100693.58;;;-1.99;86.92
57024;BME280;42916;54.346;18.562;2023-02-23T04:42:05;100690.69;;;-2.02;86.81
57024;BME280;42916;54.346;18.562;2023-02-23T04:44:32;100687.50;;;-2.04;86.49
57024;BME280;42916;54.346;18.562;2023-02-23T04:46:59;100690.30;;;-2.05;86.44
57024;BME280;42916;54.346;18.562;2023-02-23T04:49:25;100681.25;;;-2.07;86.49
57024;BME280;42916;54.346;18.562;2023-02-23T04:51:52;100685.89;;;-2.07;86.44
57024;BME280;42916;54.346;18.562;2023-02-23T04:54:19;100678.13;;;-2.07;86.29
57024;BME280;42916;54.346;18.562;2023-02-23T04:56:46;100680.35;;;-2.07;86.40
57024;BME280;42916;54.346;18.562;2023-02-23T04:59:13;100675.55;;;-2.07;86.38
57024;BME280;42916;54.346;18.562;2023-02-23T05:01:40;100668.91;;;-2.08;86.43
57024;BME280;42916;54.346;18.562;2023-02-23T05:04:07;100664.65;;;-2.10;86.31
57024;BME280;42916;54.346;18.562;2023-02-23T05:06:34;100660.35;;;-2.11;86.22
57024;BME280;42916;54.346;18.562;2023-02-23T05:09:01;100659.82;;;-2.13;86.18
57024;BME280;42916;54.346;18.562;2023-02-23T05:11:28;100654.19;;;-2.15;86.25
57024;BME280;42916;54.346;18.562;2023-02-23T05:13:55;100654.28;;;-2.17;85.98
57024;BME280;42916;54.346;18.562;2023-02-23T05:16:22;100655.25;;;-2.19;85.99
57024;BME280;42916;54.346;18.562;2023-02-23T05:18:49;100653.74;;;-2.21;85.84
57024;BME280;42916;54.346;18.562;2023-02-23T05:21:16;100653.89;;;-2.20;85.96
57024;BME280;42916;54.346;18.562;2023-02-23T05:23:43;100650.83;;;-2.20;85.79
57024;BME280;42916;54.346;18.562;2023-02-23T05:26:11;100648.06;;;-2.20;85.85
57024;BME280;42916;54.346;18.562;2023-02-23T05:28:39;100642.27;;;-2.21;85.79
57024;BME280;42916;54.346;18.562;2023-02-23T05:31:07;100638.66;;;-2.22;86.05
57024;BME280;42916;54.346;18.562;2023-02-23T05:33:35;100639.73;;;-2.24;85.93
57024;BME280;42916;54.346;18.562;2023-02-23T05:36:11;100632.30;;;-2.26;85.77
57024;BME280;42916;54.346;18.562;2023-02-23T05:38:38;100628.20;;;-2.28;85.55
57024;BME280;42916;54.346;18.562;2023-02-23T05:41:10;100628.10;;;-2.28;85.50
57024;BME280;42916;54.346;18.562;2023-02-23T05:43:37;100623.40;;;-2.28;85.51
57024;BME280;42916;54.346;18.562;2023-02-23T05:46:09;100623.10;;;-2.26;85.56
57024;BME280;42916;54.346;18.562;2023-02-23T05:48:36;100619.17;;;-2.26;85.48
57024;BME280;42916;54.346;18.562;2023-02-23T05:51:05;100619.50;;;-2.28;85.54
57024;BME280;42916;54.346;18.562;2023-02-23T05:53:32;100615.16;;;-2.29;85.74
57024;BME280;42916;54.346;18.562;2023-02-23T05:56:00;100610.73;;;-2.31;85.59
57024;BME280;42916;54.346;18.562;2023-02-23T05:58:27;100619.99;;;-2.32;85.63
57024;BME280;42916;54.346;18.562;2023-02-23T06:00:55;100616.91;;;-2.33;85.60
57024;BME280;42916;54.346;18.562;2023-02-23T06:03:22;100612.38;;;-2.34;85.34
57024;BME280;42916;54.346;18.562;2023-02-23T06:05:50;100610.38;;;-2.34;85.46
57024;BME280;42916;54.346;18.562;2023-02-23T06:08:17;100610.05;;;-2.32;85.71
57024;BME280;42916;54.346;18.562;2023-02-23T06:10:45;100605.84;;;-2.33;85.73
57024;BME280;42916;54.346;18.562;2023-02-23T06:13:12;100605.08;;;-2.34;85.75
57024;BME280;42916;54.346;18.562;2023-02-23T06:15:40;100601.32;;;-2.35;85.65
57024;BME280;42916;54.346;18.562;2023-02-23T06:18:07;100604.34;;;-2.35;85.65
57024;BME280;42916;54.346;18.562;2023-02-23T06:20:36;100597.05;;;-2.37;85.50
57024;BME280;42916;54.346;18.562;2023-02-23T06:23:03;100600.68;;;-2.36;85.75
57024;BME280;42916;54.346;18.562;2023-02-23T06:25:30;100598.30;;;-2.34;85.86
57024;BME280;42916;54.346;18.562;2023-02-23T06:27:57;100596.29;;;-2.32;85.76
57024;BME280;42916;54.346;18.562;2023-02-23T06:30:24;100596.10;;;-2.30;85.84
57024;BME280;42916;54.346;18.562;2023-02-23T06:32:50;100597.39;;;-2.27;85.90
57024;BME280;42916;54.346;18.562;2023-02-23T06:35:20;100597.48;;;-2.26;85.91
57024;BME280;42916;54.346;18.562;2023-02-23T06:37:46;100593.19;;;-2.28;85.69
57024;BME280;42916;54.346;18.562;2023-02-23T06:40:13;100594.58;;;-2.27;85.78
57024;BME280;42916;54.346;18.562;2023-02-23T06:42:40;100591.92;;;-2.25;85.83
57024;BME280;42916;54.346;18.562;2023-02-23T06:45:07;100586.09;;;-2.22;85.69
57024;BME280;42916;54.346;18.562;2023-02-23T06:47:34;100584.10;;;-2.19;85.77
57024;BME280;42916;54.346;18.562;2023-02-23T06:50:01;100585.73;;;-2.16;85.76
57024;BME280;42916;54.346;18.562;2023-02-23T06:52:28;100584.13;;;-2.14;85.75
57024;BME280;42916;54.346;18.562;2023-02-23T06:54:55;100581.16;;;-2.12;85.80
57024;BME280;42916;54.346;18.562;2023-02-23T06:57:22;100577.19;;;-2.09;85.63
57024;BME280;42916;54.346;18.562;2023-02-23T06:59:49;100573.05;;;-2.09;85.63
57024;BME280;42916;54.346;18.562;2023-02-23T07:02:16;100572.49;;;-2.07;85.58
57024;BME280;42916;54.346;18.562;2023-02-23T07:04:43;100569.65;;;-2.04;85.48
57024;BME280;42916;54.346;18.562;2023-02-23T07:07:10;100567.64;;;-2.00;85.37
57024;BME280;42916;54.346;18.562;2023-02-23T07:09:39;100569.55;;;-1.95;85.49
57024;BME280;42916;54.346;18.562;2023-02-23T07:12:06;100564.96;;;-1.90;85.51
57024;BME280;42916;54.346;18.562;2023-02-23T07:14:33;100566.35;;;-1.83;85.44
57024;BME280;42916;54.346;18.562;2023-02-23T07:17:00;100565.14;;;-1.77;85.46
57024;BME280;42916;54.346;18.562;2023-02-23T07:19:26;100560.90;;;-1.71;85.44
57024;BME280;42916;54.346;18.562;2023-02-23T07:21:54;100559.47;;;-1.65;85.26
57024;BME280;42916;54.346;18.562;2023-02-23T07:24:21;100556.82;;;-1.58;85.07
57024;BME280;42916;54.346;18.562;2023-02-23T07:26:48;100551.85;;;-1.50;85.06
57024;BME280;42916;54.346;18.562;2023-02-23T07:29:15;100549.59;;;-1.43;85.06
57024;BME280;42916;54.346;18.562;2023-02-23T07:31:41;100548.56;;;-1.36;85.01
57024;BME280;42916;54.346;18.562;2023-02-23T07:34:08;100541.95;;;-1.27;84.98
57024;BME280;42916;54.346;18.562;2023-02-23T07:36:36;100539.21;;;-1.21;84.87
57024;BME280;42916;54.346;18.562;2023-02-23T07:39:03;100532.07;;;-1.14;84.72
57024;BME280;42916;54.346;18.562;2023-02-23T07:41:30;100533.05;;;-1.10;84.40
57024;BME280;42916;54.346;18.562;2023-02-23T07:43:58;100531.63;;;-1.07;84.24
57024;BME280;42916;54.346;18.562;2023-02-23T07:46:25;100528.95;;;-1.04;83.93
57024;BME280;42916;54.346;18.562;2023-02-23T07:48:52;100527.44;;;-0.98;83.63
57024;BME280;42916;54.346;18.562;2023-02-23T07:51:19;100526.71;;;-0.95;83.38
57024;BME280;42916;54.346;18.562;2023-02-23T07:53:46;100528.59;;;-0.91;83.19
57024;BME280;42916;54.346;18.562;2023-02-23T07:56:13;100525.63;;;-0.90;83.20
57024;BME280;42916;54.346;18.562;2023-02-23T07:58:42;100527.67;;;-0.88;83.24
57024;BME280;42916;54.346;18.562;2023-02-23T08:01:10;100529.49;;;-0.85;82.98
57024;BME280;42916;54.346;18.562;2023-02-23T08:03:38;100529.05;;;-0.83;82.68
57024;BME280;42916;54.346;18.562;2023-02-23T08:06:05;100528.21;;;-0.81;82.52
57024;BME280;42916;54.346;18.562;2023-02-23T08:08:32;100521.45;;;-0.80;82.21
57024;BME280;42916;54.346;18.562;2023-02-23T08:11:02;100514.67;;;-0.75;82.52
57024;BME280;42916;54.346;18.562;2023-02-23T08:13:30;100509.80;;;-0.72;82.14
57024;BME280;42916;54.346;18.562;2023-02-23T08:15:58;100504.65;;;-0.67;81.95
57024;BME280;42916;54.346;18.562;2023-02-23T08:18:25;100498.68;;;-0.64;81.78
57024;BME280;42916;54.346;18.562;2023-02-23T08:21:00;100497.15;;;-0.61;81.75
57024;BME280;42916;54.346;18.562;2023-02-23T08:23:33;100490.16;;;-0.59;81.55
57024;BME280;42916;54.346;18.562;2023-02-23T08:26:02;100488.80;;;-0.60;81.36
57024;BME280;42916;54.346;18.562;2023-02-23T08:28:29;100489.38;;;-0.57;81.64
57024;BME280;42916;54.346;18.562;2023-02-23T08:30:56;100482.35;;;-0.54;81.28
57024;BME280;42916;54.346;18.562;2023-02-23T08:33:24;100482.45;;;-0.51;81.11
57024;BME280;42916;54.346;18.562;2023-02-23T08:35:51;100483.55;;;-0.51;80.78
57024;BME280;42916;54.346;18.562;2023-02-23T08:38:19;100480.08;;;-0.51;80.85
57024;BME280;42916;54.346;18.562;2023-02-23T08:40:46;100474.33;;;-0.47;80.39
57024;BME280;42916;54.346;18.562;2023-02-23T08:43:12;100475.30;;;-0.43;80.44
57024;BME280;42916;54.346;18.562;2023-02-23T08:45:39;100476.02;;;-0.39;80.43
57024;BME280;42916;54.346;18.562;2023-02-23T08:48:07;100475.21;;;-0.35;80.26
57024;BME280;42916;54.346;18.562;2023-02-23T08:50:34;100478.34;;;-0.33;80.04
57024;BME280;42916;54.346;18.562;2023-02-23T08:53:01;100478.55;;;-0.27;80.11
57024;BME280;42916;54.346;18.562;2023-02-23T08:55:28;100476.40;;;-0.19;80.07
57024;BME280;42916;54.346;18.562;2023-02-23T08:57:54;100476.23;;;-0.14;79.84
57024;BME280;42916;54.346;18.562;2023-02-23T09:00:21;100478.52;;;-0.09;79.81
57024;BME280;42916;54.346;18.562;2023-02-23T09:02:48;100473.56;;;-0.03;79.74
57024;BME280;42916;54.346;18.562;2023-02-23T09:05:16;100477.81;;;0.02;79.60
57024;BME280;42916;54.346;18.562;2023-02-23T09:07:44;100480.75;;;0.06;79.53
57024;BME280;42916;54.346;18.562;2023-02-23T09:10:18;100475.94;;;0.09;79.17
57024;BME280;42916;54.346;18.562;2023-02-23T09:12:50;100476.38;;;0.17;79.11
57024;BME280;42916;54.346;18.562;2023-02-23T09:15:17;100477.38;;;0.24;79.05
57024;BME280;42916;54.346;18.562;2023-02-23T09:17:45;100476.34;;;0.26;78.78
57024;BME280;42916;54.346;18.562;2023-02-23T09:20:14;100473.45;;;0.29;78.75
57024;BME280;42916;54.346;18.562;2023-02-23T09:22:42;100471.21;;;0.34;78.81
57024;BME280;42916;54.346;18.562;2023-02-23T09:25:10;100464.23;;;0.39;78.72
57024;BME280;42916;54.346;18.562;2023-02-23T09:27:38;100459.81;;;0.42;78.49
57024;BME280;42916;54.346;18.562;2023-02-23T09:30:05;100458.14;;;0.46;78.23
57024;BME280;42916;54.346;18.562;2023-02-23T09:32:32;100457.46;;;0.52;77.93
57024;BME280;42916;54.346;18.562;2023-02-23T09:34:59;100453.19;;;0.59;78.05
57024;BME280;42916;54.346;18.562;2023-02-23T09:37:25;100449.65;;;0.67;77.92
57024;BME280;42916;54.346;18.562;2023-02-23T09:39:52;100447.09;;;0.77;78.01
57024;BME280;42916;54.346;18.562;2023-02-23T09:42:32;100441.56;;;0.84;77.89
57024;BME280;42916;54.346;18.562;2023-02-23T09:48:09;100442.83;;;1.01;77.61
57024;BME280;42916;54.346;18.562;2023-02-23T09:50:39;100444.83;;;1.12;77.72
57024;BME280;42916;54.346;18.562;2023-02-23T09:53:38;100433.47;;;1.22;77.85
57024;BME280;42916;54.346;18.562;2023-02-23T09:56:11;100429.50;;;1.26;76.93
57024;BME280;42916;54.346;18.562;2023-02-23T09:58:39;100433.72;;;1.28;76.74
57024;BME280;42916;54.346;18.562;2023-02-23T10:07:00;100430.63;;;1.44;76.41
57024;BME280;42916;54.346;18.562;2023-02-23T10:12:31;100429.45;;;1.64;75.88
57024;BME280;42916;54.346;18.562;2023-02-23T10:23:13;100408.41;;;2.16;75.60
57024;BME280;42916;54.346;18.562;2023-02-23T10:25:44;100402.92;;;2.25;75.00
57024;BME280;42916;54.346;18.562;2023-02-23T10:28:18;100395.20;;;2.42;75.16
57024;BME280;42916;54.346;18.562;2023-02-23T10:30:51;100390.80;;;2.60;75.19
57024;BME280;42916;54.346;18.562;2023-02-23T10:33:25;100389.93;;;2.79;75.53
57024;BME280;42916;54.346;18.562;2023-02-23T10:36:11;100393.46;;;2.94;74.69
57024;BME280;42916;54.346;18.562;2023-02-23T10:38:39;100390.78;;;3.04;74.04
57024;BME280;42916;54.346;18.562;2023-02-23T10:41:11;100385.20;;;3.08;73.00
57024;BME280;42916;54.346;18.562;2023-02-23T10:43:38;100384.21;;;3.06;72.49
57024;BME280;42916;54.346;18.562;2023-02-23T10:46:06;100377.05;;;3.09;72.40
57024;BME280;42916;54.346;18.562;2023-02-23T10:48:37;100374.95;;;3.15;72.92
57024;BME280;42916;54.346;18.562;2023-02-23T10:51:17;100380.20;;;3.23;72.69
57024;BME280;42916;54.346;18.562;2023-02-23T10:53:45;100371.34;;;3.27;72.48
57024;BME280;42916;54.346;18.562;2023-02-23T10:56:14;100369.44;;;3.31;72.33
57024;BME280;42916;54.346;18.562;2023-02-23T10:58:45;100368.48;;;3.27;71.91
57024;BME280;42916;54.346;18.562;2023-02-23T11:01:30;100362.86;;;3.26;71.74
57024;BME280;42916;54.346;18.562;2023-02-23T11:04:29;100357.49;;;3.28;71.74
57024;BME280;42916;54.346;18.562;2023-02-23T11:09:48;100350.17;;;3.27;71.39
57024;BME280;42916;54.346;18.562;2023-02-23T11:12:24;100348.42;;;3.28;71.47
57024;BME280;42916;54.346;18.562;2023-02-23T11:14:56;100337.61;;;3.24;70.68
57024;BME280;42916;54.346;18.562;2023-02-23T11:17:30;100326.77;;;3.20;70.55
57024;BME280;42916;54.346;18.562;2023-02-23T11:20:05;100328.23;;;3.19;70.66
57024;BME280;42916;54.346;18.562;2023-02-23T11:22:35;100313.66;;;3.19;70.66
57024;BME280;42916;54.346;18.562;2023-02-23T11:25:14;100313.45;;;3.18;70.76
57024;BME280;42916;54.346;18.562;2023-02-23T11:27:45;100307.66;;;3.17;70.82
57024;BME280;42916;54.346;18.562;2023-02-23T11:30:19;100301.42;;;3.13;70.83
57024;BME280;42916;54.346;18.562;2023-02-23T11:32:56;100300.49;;;3.11;70.85
57024;BME280;42916;54.346;18.562;2023-02-23T11:35:29;100293.05;;;3.05;70.74
57024;BME280;42916;54.346;18.562;2023-02-23T11:37:56;100290.52;;;3.04;71.05
57024;BME280;42916;54.346;18.562;2023-02-23T11:40:26;100297.91;;;3.07;71.15
57024;BME280;42916;54.346;18.562;2023-02-23T11:42:56;100290.17;;;3.10;71.31
57024;BME280;42916;54.346;18.562;2023-02-23T11:45:25;100286.02;;;3.06;71.00
57024;BME280;42916;54.346;18.562;2023-02-23T11:47:56;100279.48;;;3.01;70.87
57024;BME280;42916;54.346;18.562;2023-02-23T11:50:34;100278.90;;;3.06;71.26
57024;BME280;42916;54.346;18.562;2023-02-23T11:53:10;100276.28;;;3.13;71.52
57024;BME280;42916;54.346;18.562;2023-02-23T11:55:45;100278.06;;;3.15;70.84
57024;BME280;42916;54.346;18.562;2023-02-23T12:00:56;100263.65;;;3.23;71.39
57024;BME280;42916;54.346;18.562;2023-02-23T12:03:26;100267.29;;;3.27;71.03
57024;BME280;42916;54.346;18.562;2023-02-23T12:05:55;100264.41;;;3.33;71.11
57024;BME280;42916;54.346;18.562;2023-02-23T12:10:58;100252.36;;;3.51;71.07
57024;BME280;42916;54.346;18.562;2023-02-23T12:13:34;100246.19;;;3.52;70.24
57024;BME280;42916;54.346;18.562;2023-02-23T12:19:01;100239.02;;;3.74;70.79
57024;BME280;42916;54.346;18.562;2023-02-23T12:21:51;100237.82;;;3.93;70.81
57024;BME280;42916;54.346;18.562;2023-02-23T12:27:18;100233.69;;;4.25;70.35
57024;BME280;42916;54.346;18.562;2023-02-23T12:30:37;100228.80;;;4.42;70.20
57024;BME280;42916;54.346;18.562;2023-02-23T12:33:01;100228.77;;;4.51;69.47
57024;BME280;42916;54.346;18.562;2023-02-23T12:35:51;100219.41;;;4.50;69.43
57024;BME280;42916;54.346;18.562;2023-02-23T12:38:27;100216.11;;;4.43;69.13
57024;BME280;42916;54.346;18.562;2023-02-23T12:41:04;100210.70;;;4.32;69.03
57024;BME280;42916;54.346;18.562;2023-02-23T12:46:14;100202.36;;;4.21;68.73
57024;BME280;42916;54.346;18.562;2023-02-23T12:49:01;100199.63;;;4.13;68.79
57024;BME280;42916;54.346;18.562;2023-02-23T12:51:38;100190.05;;;4.10;69.06
57024;BME280;42916;54.346;18.562;2023-02-23T12:54:10;100183.46;;;4.03;69.19
57024;BME280;42916;54.346;18.562;2023-02-23T12:59:57;100172.31;;;4.05;69.50
57024;BME280;42916;54.346;18.562;2023-02-23T13:10:45;100141.42;;;4.11;69.49
57024;BME280;42916;54.346;18.562;2023-02-23T13:16:10;100128.78;;;4.17;69.51
57024;BME280;42916;54.346;18.562;2023-02-23T13:19:19;100122.79;;;4.16;69.45
57024;BME280;42916;54.346;18.562;2023-02-23T13:21:53;100114.33;;;4.22;69.71
57024;BME280;42916;54.346;18.562;2023-02-23T13:24:26;100107.11;;;4.23;69.93
57024;BME280;42916;54.346;18.562;2023-02-23T13:29:47;100099.16;;;4.19;69.58
57024;BME280;42916;54.346;18.562;2023-02-23T13:32:18;100093.94;;;4.22;70.08
57024;BME280;42916;54.346;18.562;2023-02-23T13:34:53;100089.43;;;4.30;70.16
57024;BME280;42916;54.346;18.562;2023-02-23T13:43:12;100072.80;;;4.58;69.83
57024;BME280;42916;54.346;18.562;2023-02-23T13:46:30;100067.52;;;4.64;69.73
57024;BME280;42916;54.346;18.562;2023-02-23T13:49:38;100055.00;;;4.63;69.55
57024;BME280;42916;54.346;18.562;2023-02-23T13:52:12;100044.84;;;4.65;69.64
57024;BME280;42916;54.346;18.562;2023-02-23T13:54:55;100043.02;;;4.66;69.76
57024;BME280;42916;54.346;18.562;2023-02-23T13:57:26;100041.80;;;4.65;69.38
57024;BME280;42916;54.346;18.562;2023-02-23T13:59:53;100039.30;;;4.66;69.65
57024;BME280;42916;54.346;18.562;2023-02-23T14:02:32;100043.34;;;4.68;69.79
57024;BME280;42916;54.346;18.562;2023-02-23T14:05:05;100046.61;;;4.69;69.88
57024;BME280;42916;54.346;18.562;2023-02-23T14:07:43;100040.13;;;4.66;69.82
57024;BME280;42916;54.346;18.562;2023-02-23T14:10:20;100043.30;;;4.61;69.75
57024;BME280;42916;54.346;18.562;2023-02-23T14:18:02;100030.88;;;4.40;69.57
57024;BME280;42916;54.346;18.562;2023-02-23T14:28:32;100007.42;;;4.21;70.03
57024;BME280;42916;54.346;18.562;2023-02-23T14:36:35;99993.01;;;4.18;70.60
57024;BME280;42916;54.346;18.562;2023-02-23T14:39:08;99989.13;;;4.16;70.38
57024;BME280;42916;54.346;18.562;2023-02-23T14:44:30;99987.11;;;4.22;71.21
57024;BME280;42916;54.346;18.562;2023-02-23T14:47:02;99992.45;;;4.35;70.93
57024;BME280;42916;54.346;18.562;2023-02-23T14:49:37;99986.36;;;4.42;70.88
57024;BME280;42916;54.346;18.562;2023-02-23T14:52:13;99982.77;;;4.48;71.05
57024;BME280;42916;54.346;18.562;2023-02-23T14:54:45;99976.86;;;4.51;71.03
57024;BME280;42916;54.346;18.562;2023-02-23T14:57:17;99979.04;;;4.52;70.92